Time;durP1;ratioP1;P1;durP2;ratioP2;P2;SDS_P1;SDS_P2;PMS_P1;PMS_P2;Temp;Humidity;BMP_temperature;BMP_pressure;BME280_temperature;BME280_humidity;BME280_pressure;Samples;Min_cycle;Max_cycle;Signal;HPM_P1;HPM_P2
2021/08/21 00:00:52;;;;;;;11.15;7.30;;;;;;;14.69;100.00;101769.41;10457088;28;20072;-69
2021/08/21 00:05:54;;;;;;;10.38;7.70;;;;;;;14.55;100.00;101770.22;10456907;28;20106;-71
2021/08/21 00:10:57;;;;;;;10.95;7.03;;;;;;;14.58;100.00;101764.75;10457655;28;20056;-73
2021/08/21 00:16:00;;;;;;;14.75;8.23;;;;;;;14.47;100.00;101768.03;10456034;28;20481;-71
2021/08/21 00:21:02;;;;;;;13.73;8.00;;;;;;;14.35;100.00;101768.75;10462854;28;20460;-72
2021/08/21 00:26:04;;;;;;;10.45;8.90;;;;;;;14.42;100.00;101769.22;10464479;28;20052;-70
2021/08/21 00:31:07;;;;;;;11.52;8.63;;;;;;;14.30;100.00;101765.53;10464894;28;20049;-70
2021/08/21 00:36:09;;;;;;;11.38;9.02;;;;;;;14.36;100.00;101761.72;10464181;28;20072;-70
2021/08/21 00:41:12;;;;;;;15.27;9.27;;;;;;;14.31;100.00;101756.69;10464481;28;20070;-70
2021/08/21 00:46:14;;;;;;;18.58;9.27;;;;;;;14.34;100.00;101766.19;10463859;28;20049;-71
2021/08/21 00:51:16;;;;;;;17.25;9.25;;;;;;;14.31;100.00;101757.53;10463558;28;20053;-70
2021/08/21 00:56:18;;;;;;;16.27;10.93;;;;;;;14.31;100.00;101754.91;10463174;28;20490;-69
2021/08/21 01:01:23;;;;;;;18.55;11.23;;;;;;;14.24;100.00;101755.31;10462005;28;20045;-71
2021/08/21 01:06:25;;;;;;;18.73;13.10;;;;;;;14.32;100.00;101755.75;10463582;28;20049;-70
2021/08/21 01:11:30;;;;;;;20.17;11.45;;;;;;;14.25;100.00;101746.50;10462989;28;20049;-70
2021/08/21 01:16:32;;;;;;;16.17;10.35;;;;;;;14.21;100.00;101760.81;10460937;28;20053;-69
2021/08/21 01:21:35;;;;;;;16.63;12.68;;;;;;;14.17;100.00;101754.00;10460426;28;20083;-70
2021/08/21 01:26:46;;;;;;;15.07;11.57;;;;;;;14.13;100.00;101750.69;10459724;28;20052;-71
2021/08/21 01:31:49;;;;;;;;;;;;;;;14.12;100.00;101752.50;10459688;28;20048;-70
2021/08/21 01:36:52;;;;;;;19.15;12.82;;;;;;;14.18;100.00;101758.34;10459457;28;19921;-71
2021/08/21 01:41:54;;;;;;;20.55;12.98;;;;;;;14.08;100.00;101750.94;10459208;28;20506;-71
2021/08/21 01:46:57;;;;;;;18.98;14.05;;;;;;;14.06;100.00;101750.19;10458982;28;20048;-69
2021/08/21 01:52:02;;;;;;;21.58;13.48;;;;;;;13.95;100.00;101760.47;10459210;28;20057;-70
2021/08/21 01:57:06;;;;;;;18.55;12.65;;;;;;;14.01;100.00;101748.78;10458833;28;20048;-72
2021/08/21 02:02:12;;;;;;;24.40;15.43;;;;;;;13.85;100.00;101744.38;10458446;28;20053;-71
2021/08/21 02:07:15;;;;;;;24.25;14.82;;;;;;;13.90;100.00;101747.59;10458578;28;20083;-70
2021/08/21 02:12:17;;;;;;;27.00;15.60;;;;;;;13.85;100.00;101739.09;10458269;28;20051;-72
2021/08/21 02:17:20;;;;;;;23.52;14.77;;;;;;;13.87;100.00;101745.13;10420394;28;1085955;-70
2021/08/21 02:22:22;;;;;;;28.60;16.63;;;;;;;13.83;100.00;101738.31;10460015;28;20063;-71
2021/08/21 02:27:25;;;;;;;25.45;16.27;;;;;;;13.88;100.00;101745.97;10459869;28;20071;-71
2021/08/21 02:32:28;;;;;;;21.65;15.52;;;;;;;13.89;100.00;101747.69;10459567;28;20049;-71
2021/08/21 02:37:31;;;;;;;25.08;16.85;;;;;;;13.81;100.00;101750.72;10459620;28;20048;-70
2021/08/21 02:42:34;;;;;;;27.45;18.40;;;;;;;13.83;100.00;101746.22;10458702;28;20052;-69
2021/08/21 02:47:36;;;;;;;30.65;19.15;;;;;;;13.75;100.00;101743.16;10458880;28;20049;-71
2021/08/21 02:52:39;;;;;;;28.17;17.08;;;;;;;13.85;100.00;101733.84;10458614;28;20053;-72
2021/08/21 02:57:41;;;;;;;25.67;17.95;;;;;;;13.88;100.00;101735.44;10457186;28;20497;-71
2021/08/21 03:02:44;;;;;;;34.35;19.65;;;;;;;14.07;100.00;101736.09;10459253;28;20056;-71
2021/08/21 03:07:46;;;;;;;31.40;19.75;;;;;;;14.07;100.00;101732.59;10458121;28;20045;-70
2021/08/21 03:12:48;;;;;;;28.35;17.90;;;;;;;14.04;100.00;101727.53;10456968;28;20059;-70
2021/08/21 03:17:54;;;;;;;25.42;16.92;;;;;;;14.17;100.00;101733.78;10457942;28;20052;-72
2021/08/21 03:22:57;;;;;;;33.05;20.00;;;;;;;14.09;100.00;101738.66;10458351;28;20114;-72
2021/08/21 03:28:00;;;;;;;34.88;17.60;;;;;;;14.08;100.00;101729.88;10457504;28;20040;-71
2021/08/21 03:33:02;;;;;;;21.33;14.63;;;;;;;14.29;100.00;101729.59;10457753;28;20052;-72
2021/08/21 03:38:04;;;;;;;22.77;13.23;;;;;;;14.37;100.00;101729.97;10456274;28;20049;-72
2021/08/21 03:43:07;;;;;;;18.13;12.75;;;;;;;14.31;100.00;101733.00;10457475;28;20071;-71
2021/08/21 03:48:11;;;;;;;19.60;11.82;;;;;;;14.35;100.00;101723.94;10456845;28;20099;-72
2021/08/21 03:53:13;;;;;;;16.40;9.50;;;;;;;14.28;100.00;101731.38;10455845;28;20048;-71
2021/08/21 03:58:16;;;;;;;12.48;8.57;;;;;;;14.21;100.00;101730.03;10456332;28;20049;-72
2021/08/21 04:03:18;;;;;;;17.08;9.32;;;;;;;14.16;100.00;101723.34;10457164;28;20092;-71
2021/08/21 04:08:21;;;;;;;16.33;9.63;;;;;;;14.12;100.00;101725.28;10456573;28;20055;-71
2021/08/21 04:13:23;;;;;;;13.73;8.05;;;;;;;14.01;100.00;101727.72;10456194;28;20045;-72
2021/08/21 04:18:25;;;;;;;14.43;8.32;;;;;;;13.89;100.00;101735.34;10456092;28;20401;-72
2021/08/21 04:23:27;;;;;;;13.55;8.65;;;;;;;14.01;100.00;101732.97;10456110;28;20499;-71
2021/08/21 04:28:30;;;;;;;17.88;8.35;;;;;;;14.07;100.00;101729.97;10455810;28;20041;-71
2021/08/21 04:33:32;;;;;;;14.20;9.20;;;;;;;14.00;100.00;101728.63;10455939;28;20499;-70
2021/08/21 04:38:35;;;;;;;17.65;9.40;;;;;;;14.10;100.00;101729.78;10455917;28;20049;-71
2021/08/21 04:43:37;;;;;;;15.48;9.15;;;;;;;14.01;100.00;101733.81;10455510;28;20048;-70
2021/08/21 04:48:40;;;;;;;16.13;9.75;;;;;;;14.02;100.00;101729.38;10455594;28;20059;-71
2021/08/21 04:53:42;;;;;;;19.95;12.15;;;;;;;14.19;100.00;101733.69;10456376;28;20056;-71
2021/08/21 04:58:44;;;;;;;13.75;10.00;;;;;;;14.15;100.00;101732.16;10455378;28;20052;-71
2021/08/21 05:03:47;;;;;;;19.73;12.75;;;;;;;14.23;100.00;101737.84;10456276;28;20056;-71
2021/08/21 05:08:49;;;;;;;17.58;9.68;;;;;;;14.49;100.00;101731.03;10462637;28;20049;-70
2021/08/21 05:13:51;;;;;;;24.50;13.45;;;;;;;14.53;100.00;101729.94;10462886;28;20045;-71
2021/08/21 05:18:58;;;;;;;18.92;12.93;;;;;;;14.65;100.00;101733.66;10463058;28;20053;-70
2021/08/21 05:24:01;;;;;;;25.67;14.07;;;;;;;14.59;100.00;101731.38;10462486;28;20049;-70
2021/08/21 05:29:03;;;;;;;22.77;14.10;;;;;;;14.68;100.00;101736.13;10462098;28;20401;-71
2021/08/21 05:34:06;;;;;;;19.60;13.55;;;;;;;14.61;100.00;101733.00;10461956;28;20400;-69
2021/08/21 05:39:10;;;;;;;16.75;12.63;;;;;;;14.80;100.00;101727.47;10461976;28;20512;-71
2021/08/21 05:44:12;;;;;;;25.50;13.57;;;;;;;14.97;100.00;101733.50;10461927;28;20044;-71
2021/08/21 05:49:15;;;;;;;20.90;11.98;;;;;;;15.14;100.00;101741.22;10461599;28;20056;-71
2021/08/21 05:54:17;;;;;;;22.30;13.48;;;;;;;14.99;100.00;101740.38;10461453;28;20045;-71
2021/08/21 05:59:19;;;;;;;23.98;14.93;;;;;;;15.19;100.00;101746.22;10460720;28;20045;-63
2021/08/21 06:04:22;;;;;;;24.95;15.18;;;;;;;15.09;100.00;101742.44;10461136;28;20045;-70
2021/08/21 06:09:25;;;;;;;20.92;14.98;;;;;;;15.22;100.00;101746.88;10460627;28;20045;-70
2021/08/21 06:14:27;;;;;;;35.03;19.55;;;;;;;15.33;100.00;101758.53;10460762;28;20045;-72
2021/08/21 06:19:29;;;;;;;25.35;17.52;;;;;;;15.52;100.00;101759.09;10459294;28;20060;-70
2021/08/21 06:24:32;;;;;;;32.95;22.10;;;;;;;15.49;100.00;101759.28;10460062;28;20056;-70
2021/08/21 06:29:35;;;;;;;36.45;24.60;;;;;;;15.89;100.00;101756.78;10459454;28;20404;-70
2021/08/21 06:34:37;;;;;;;30.45;20.77;;;;;;;16.19;100.00;101766.31;10460294;28;20049;-69
2021/08/21 06:39:40;;;;;;;31.20;20.27;;;;;;;16.38;100.00;101762.44;10459110;28;20053;-69
2021/08/21 06:44:42;;;;;;;28.38;19.83;;;;;;;16.49;100.00;101755.50;10458879;28;20489;-69
2021/08/21 06:49:44;;;;;;;37.20;25.48;;;;;;;16.56;100.00;101761.22;10458944;28;20048;-67
2021/08/21 06:54:47;;;;;;;32.03;22.77;;;;;;;16.93;100.00;101756.09;10458741;28;20486;-68
2021/08/21 06:59:49;;;;;;;33.92;25.23;;;;;;;17.18;100.00;101763.16;10458512;28;20512;-68
2021/08/21 07:04:52;;;;;;;42.00;26.70;;;;;;;17.27;100.00;101754.56;10458909;28;20047;-69
2021/08/21 07:09:54;;;;;;;40.13;26.17;;;;;;;17.58;100.00;101762.94;10458061;28;20067;-68
2021/08/21 07:14:57;;;;;;;31.23;25.10;;;;;;;18.12;100.00;101760.88;10459366;28;20048;-69
2021/08/21 07:19:59;;;;;;;29.42;22.60;;;;;;;18.33;100.00;101751.31;10457954;28;20057;-67
2021/08/21 07:25:01;;;;;;;27.77;21.67;;;;;;;18.52;100.00;101757.88;10457724;28;20049;-69
2021/08/21 07:30:05;;;;;;;35.17;23.23;;;;;;;18.51;100.00;101751.75;10455802;28;20057;-67
2021/08/21 07:35:07;;;;;;;28.40;21.00;;;;;;;18.75;100.00;101748.19;10457301;28;20053;-68
2021/08/21 07:40:10;;;;;;;32.97;22.30;;;;;;;18.98;100.00;101751.75;10457274;28;20057;-68
2021/08/21 07:45:13;;;;;;;29.67;21.27;;;;;;;19.21;100.00;101755.22;10456852;28;20053;-67
2021/08/21 07:50:16;;;;;;;32.88;23.10;;;;;;;19.34;100.00;101752.44;10456616;28;20041;-68
2021/08/21 07:55:18;;;;;;;24.65;19.40;;;;;;;19.48;100.00;101748.69;10456709;28;20481;-68
2021/08/21 08:00:21;;;;;;;23.95;19.75;;;;;;;19.74;98.75;101749.25;10456609;28;20067;-67
2021/08/21 08:05:23;;;;;;;25.02;19.77;;;;;;;19.46;98.31;101745.31;10456430;28;20397;-69
2021/08/21 08:10:25;;;;;;;26.58;21.02;;;;;;;19.09;99.99;101748.25;10456358;28;20059;-68
2021/08/21 08:15:28;;;;;;;26.48;19.33;;;;;;;19.33;99.32;101747.25;10456496;28;20075;-69
2021/08/21 08:20:30;;;;;;;23.83;19.38;;;;;;;19.72;99.11;101756.50;10456391;28;20057;-67
2021/08/21 08:25:33;;;;;;;27.73;19.17;;;;;;;19.33;100.00;101758.72;10456168;28;20049;-68
2021/08/21 08:30:35;;;;;;;25.58;18.02;;;;;;;19.57;98.05;101763.03;10455861;28;20524;-67
2021/08/21 08:35:37;;;;;;;22.33;17.77;;;;;;;19.46;99.13;101759.44;10455973;28;20060;-69
2021/08/21 08:40:40;;;;;;;21.20;18.30;;;;;;;19.80;97.11;101767.38;10459458;28;20509;-69
2021/08/21 08:45:43;;;;;;;21.17;17.02;;;;;;;20.75;96.79;101763.13;10462982;28;20049;-68
2021/08/21 08:50:47;;;;;;;18.85;16.70;;;;;;;20.67;94.05;101758.44;10463312;28;20049;-68
2021/08/21 08:55:49;;;;;;;22.30;16.10;;;;;;;20.58;94.87;101762.69;10463076;28;20580;-67
2021/08/21 09:00:52;;;;;;;20.55;15.73;;;;;;;20.28;95.22;101762.63;10463105;28;20396;-67
2021/08/21 09:05:55;;;;;;;18.58;15.63;;;;;;;20.17;98.46;101756.41;10463294;28;20053;-67
2021/08/21 09:11:02;;;;;;;22.55;15.63;;;;;;;20.97;93.84;101759.44;10462820;28;20051;-67
2021/08/21 09:16:04;;;;;;;21.27;17.25;;;;;;;21.82;90.16;101752.88;10462677;28;20052;-67
2021/08/21 09:21:07;;;;;;;16.98;15.00;;;;;;;23.34;85.77;101755.72;10462858;28;20053;-68
2021/08/21 09:26:17;;;;;;;14.45;12.25;;;;;;;23.64;81.09;101743.03;10462723;28;20048;-68
2021/08/21 09:31:22;;;;;;;14.85;10.63;;;;;;;23.18;80.68;101745.66;10462319;28;20072;-68
2021/08/21 09:36:29;;;;;;;13.20;10.25;;;;;;;24.27;77.18;101739.44;10461971;28;20045;-68
2021/08/21 09:41:51;;;;;;;11.90;9.40;;;;;;;24.56;79.54;101733.84;10461914;28;20049;-68
2021/08/21 09:47:09;;;;;;;10.50;9.40;;;;;;;23.06;77.83;101734.31;10462054;28;20049;-68
2021/08/21 09:52:14;;;;;;;16.63;9.15;;;;;;;24.61;70.22;101731.53;10461030;28;20493;-68
2021/08/21 09:57:21;;;;;;;16.13;9.50;;;;;;;25.32;70.13;101718.81;10461367;28;20051;-68
2021/08/21 10:02:24;;;;;;;27.00;10.80;;;;;;;25.02;67.44;101734.41;10460883;28;20511;-69
2021/08/21 10:07:34;;;;;;;9.80;6.72;;;;;;;25.91;67.21;101723.28;10461235;28;20071;-68
2021/08/21 10:12:38;;;;;;;6.95;5.95;;;;;;;25.39;69.51;101719.00;10460430;28;20485;-69
2021/08/21 10:17:43;;;;;;;5.45;4.85;;;;;;;26.86;65.68;101722.69;10459079;28;20053;-67
2021/08/21 10:22:46;;;;;;;5.15;4.07;;;;;;;26.14;61.21;101710.91;10460713;28;20048;-67
2021/08/21 10:27:58;;;;;;;5.78;3.58;;;;;;;26.95;62.18;101704.69;10458769;28;20052;-66
2021/08/21 10:33:03;;;;;;;3.42;2.45;;;;;;;26.74;63.42;101705.28;10459087;28;20048;-67
2021/08/21 10:38:35;;;;;;;8.93;5.47;;;;;;;26.84;59.00;101713.97;10459706;28;20048;-67
2021/08/21 10:43:52;;;;;;;3.42;3.20;;;;;;;26.92;54.93;101713.13;10459699;28;20052;-67
2021/08/21 10:48:55;;;;;;;3.58;3.10;;;;;;;27.24;61.19;101704.88;10459043;28;20059;-66
2021/08/21 10:53:58;;;;;;;6.38;4.65;;;;;;;26.81;55.92;101707.09;10459507;28;20045;-68
2021/08/21 10:59:00;;;;;;;8.75;3.90;;;;;;;27.71;59.66;101708.50;10458907;28;20048;-67
2021/08/21 11:04:03;;;;;;;5.25;4.55;;;;;;;28.10;58.09;101704.84;10458519;28;20045;-68
2021/08/21 11:09:10;;;;;;;9.00;6.10;;;;;;;26.08;58.61;101698.16;10458229;28;20056;-66
2021/08/21 11:14:25;;;;;;;6.15;5.00;;;;;;;26.72;61.30;101692.03;10458229;28;20443;-66
2021/08/21 11:19:33;;;;;;;6.70;3.90;;;;;;;26.31;65.59;101692.09;10458496;28;20060;-67
2021/08/21 11:24:36;;;;;;;8.20;5.53;;;;;;;25.46;63.56;101685.16;10458146;28;20106;-67
2021/08/21 11:35:56;;;;;;;7.30;5.40;;;;;;;24.83;62.76;101676.56;10457319;28;20401;-65
2021/08/21 11:41:00;;;;;;;4.47;3.63;;;;;;;25.55;68.66;101672.59;10452443;28;20098;-67
2021/08/21 11:46:03;;;;;;;3.30;2.90;;;;;;;26.58;68.22;101668.53;10457186;28;20056;-65
2021/08/21 11:51:06;;;;;;;5.82;3.65;;;;;;;25.90;66.09;101673.31;10457140;28;20055;-66
2021/08/21 11:56:14;;;;;;;2.90;2.60;;;;;;;25.35;65.17;101666.72;10456880;28;20082;-67
2021/08/21 12:01:18;;;;;;;4.03;2.58;;;;;;;24.91;68.61;101659.69;10456946;28;20045;-67
2021/08/21 12:06:30;;;;;;;4.03;2.28;;;;;;;25.18;67.36;101657.75;10456541;28;20083;-67
2021/08/21 12:11:33;;;;;;;5.90;2.20;;;;;;;25.43;67.34;101649.81;10456373;28;20472;-67
2021/08/21 12:16:36;;;;;;;4.63;2.20;;;;;;;25.71;63.78;101645.81;10463588;28;20370;-66
2021/08/21 12:21:39;;;;;;;2.85;1.95;;;;;;;25.14;70.94;101637.69;10464015;28;20071;-67
2021/08/21 12:26:46;;;;;;;2.15;1.90;;;;;;;25.48;65.92;101629.53;10464551;28;20413;-66
2021/08/21 12:31:50;;;;;;;3.08;1.60;;;;;;;25.51;67.88;101626.53;10464253;28;20497;-66
2021/08/21 12:36:56;;;;;;;2.38;2.15;;;;;;;25.06;64.43;101634.97;10464524;28;20052;-66
2021/08/21 12:42:00;;;;;;;2.38;1.88;;;;;;;25.02;67.19;101627.25;10464310;28;20061;-66
2021/08/21 12:47:03;;;;;;;1.65;1.55;;;;;;;25.36;69.94;101630.88;10464059;28;20076;-67
2021/08/21 12:52:20;;;;;;;2.13;1.70;;;;;;;25.18;64.47;101626.47;10463766;28;20060;-68
2021/08/21 12:57:22;;;;;;;1.70;1.60;;;;;;;26.45;65.74;101620.75;10463923;28;20044;-67
2021/08/21 13:02:25;;;;;;;3.08;2.03;;;;;;;26.16;59.42;101624.88;10462200;28;20053;-67
2021/08/21 13:07:40;;;;;;;2.10;1.90;;;;;;;26.30;62.05;101617.94;10462760;28;20409;-67
2021/08/21 13:12:43;;;;;;;2.17;1.98;;;;;;;26.13;57.24;101614.47;10462914;28;20504;-65
2021/08/21 13:17:46;;;;;;;3.85;1.65;;;;;;;26.52;58.56;101608.31;10462775;28;20064;-66
2021/08/21 13:22:50;;;;;;;1.63;1.45;;;;;;;25.15;57.28;101613.41;10461667;28;20053;-65
2021/08/21 13:27:53;;;;;;;3.60;1.70;;;;;;;25.52;60.14;101612.13;10461423;28;20497;-66
2021/08/21 13:32:56;;;;;;;2.00;1.80;;;;;;;24.99;60.82;101608.00;10462542;28;20098;-67
2021/08/21 13:37:58;;;;;;;2.85;1.60;;;;;;;25.99;56.49;101610.66;10461794;28;20041;-67
2021/08/21 13:43:01;;;;;;;3.05;1.70;;;;;;;26.20;63.88;101611.94;10461623;28;20049;-67
2021/08/21 13:48:04;;;;;;;5.28;1.92;;;;;;;25.04;58.44;101606.50;10461390;28;20052;-67
2021/08/21 13:53:07;;;;;;;1.17;1.15;;;;;;;27.42;61.90;101599.78;10461899;28;20067;-67
2021/08/21 13:58:10;;;;;;;1.98;1.25;;;;;;;26.89;60.38;101593.38;10461101;28;20045;-65
2021/08/21 14:03:12;;;;;;;1.60;1.35;;;;;;;26.44;64.39;101587.69;10461582;28;20053;-66
2021/08/21 14:08:14;;;;;;;2.08;1.50;;;;;;;26.28;59.81;101582.41;10460812;28;20052;-66
2021/08/21 14:13:17;;;;;;;1.98;1.60;;;;;;;25.84;61.47;101580.09;10460629;28;20045;-66
2021/08/21 14:18:19;;;;;;;2.08;1.60;;;;;;;26.04;65.05;101576.09;10459336;28;20060;-65
2021/08/21 14:23:21;;;;;;;3.65;1.98;;;;;;;26.12;61.15;101564.47;10460208;28;20067;-66
2021/08/21 14:28:24;;;;;;;1.45;1.35;;;;;;;25.98;63.14;101571.41;10459897;28;20040;-67
2021/08/21 14:33:26;;;;;;;3.72;1.58;;;;;;;25.89;60.20;101573.22;10459728;28;20493;-67
2021/08/21 14:38:28;;;;;;;2.72;1.48;;;;;;;25.01;66.36;101566.63;10458398;28;20052;-66
2021/08/21 14:43:31;;;;;;;2.65;1.70;;;;;;;26.15;66.38;101561.47;10459603;28;20056;-67
2021/08/21 14:48:33;;;;;;;7.78;1.63;;;;;;;26.37;63.31;101559.88;10459326;28;20055;-67
2021/08/21 14:53:36;;;;;;;2.33;1.52;;;;;;;26.23;67.03;101557.91;10459279;28;20056;-67
2021/08/21 14:58:38;;;;;;;1.45;1.33;;;;;;;26.13;67.01;101558.13;10458553;28;20048;-67
2021/08/21 15:03:42;;;;;;;1.98;1.52;;;;;;;25.85;70.95;101550.41;10457400;28;20520;-66
2021/08/21 15:08:44;;;;;;;2.28;1.50;;;;;;;25.50;73.24;101555.19;10458519;28;20064;-68
2021/08/21 15:13:47;;;;;;;3.28;1.60;;;;;;;25.34;72.38;101549.81;10458197;28;20059;-68
2021/08/21 15:18:49;;;;;;;1.50;1.40;;;;;;;25.57;70.03;101539.22;10458033;28;20056;-67
2021/08/21 15:23:55;;;;;;;1.42;1.27;;;;;;;25.34;71.68;101537.25;10457912;28;20055;-68
2021/08/21 15:28:58;;;;;;;1.75;1.65;;;;;;;25.29;70.36;101528.88;10457814;28;20409;-66
2021/08/21 15:34:00;;;;;;;1.88;1.00;;;;;;;24.94;72.17;101520.09;10457771;28;20053;-67
2021/08/21 15:39:03;;;;;;;3.45;1.80;;;;;;;24.71;74.75;101517.19;10455802;28;20489;-66
2021/08/21 15:44:07;;;;;;;3.13;1.60;;;;;;;25.09;72.50;101511.41;10457569;28;20056;-66
2021/08/21 15:49:09;;;;;;;3.05;2.05;;;;;;;24.83;72.99;101502.50;10456737;28;20059;-66
2021/08/21 15:54:12;;;;;;;5.35;1.90;;;;;;;24.92;72.53;101503.34;10456917;28;20048;-67
2021/08/21 15:59:14;;;;;;;2.08;1.90;;;;;;;24.48;72.49;101501.72;10456991;28;20056;-68
2021/08/21 16:04:17;;;;;;;3.38;1.77;;;;;;;24.21;81.33;101497.44;10456730;28;20049;-67
2021/08/21 16:09:22;;;;;;;1.73;1.63;;;;;;;24.22;76.85;101500.94;10456677;28;20493;-68
2021/08/21 16:14:25;;;;;;;3.38;1.80;;;;;;;23.99;81.07;101498.00;10456911;28;20115;-68
2021/08/21 16:19:28;;;;;;;3.25;1.73;;;;;;;24.17;82.50;101500.59;10456768;28;20056;-67
2021/08/21 16:24:30;;;;;;;4.18;1.88;;;;;;;23.85;82.96;101494.06;10456207;28;20428;-67
2021/08/21 16:29:33;;;;;;;5.82;1.75;;;;;;;23.69;88.37;101498.31;10455852;28;20496;-67
2021/08/21 16:34:36;;;;;;;3.05;1.38;;;;;;;23.76;87.46;101490.50;10456090;28;20080;-67
2021/08/21 16:39:40;;;;;;;2.00;1.80;;;;;;;23.70;88.79;101496.47;10455618;28;20489;-66
2021/08/21 16:44:42;;;;;;;4.72;1.65;;;;;;;23.31;90.58;101487.00;10456059;28;20516;-66
2021/08/21 16:49:44;;;;;;;3.13;1.67;;;;;;;23.24;91.41;101493.13;10455570;28;20053;-67
2021/08/21 16:54:47;;;;;;;2.88;1.58;;;;;;;23.46;89.91;101491.78;10456009;28;20053;-68
2021/08/21 16:59:49;;;;;;;2.05;1.70;;;;;;;23.23;90.83;101489.59;10456055;28;20049;-67
2021/08/21 17:04:51;;;;;;;4.13;1.80;;;;;;;23.15;91.36;101490.38;10463449;28;20049;-68
2021/08/21 17:09:54;;;;;;;3.03;1.65;;;;;;;23.10;92.47;101489.16;10463131;28;20045;-67
2021/08/21 17:14:56;;;;;;;4.90;2.55;;;;;;;22.71;94.78;101489.41;10463705;28;20060;-67
2021/08/21 17:19:58;;;;;;;3.95;2.10;;;;;;;22.74;95.14;101484.63;10463116;28;20053;-67
2021/08/21 17:25:01;;;;;;;4.50;1.98;;;;;;;22.61;95.08;101485.00;10462544;28;20057;-69
2021/08/21 17:30:04;;;;;;;4.07;2.13;;;;;;;22.13;99.12;101485.22;10463129;28;20052;-69
2021/08/21 17:35:06;;;;;;;1.55;1.45;;;;;;;22.30;98.06;101484.47;10462785;28;20052;-67
2021/08/21 17:40:09;;;;;;;2.67;2.20;;;;;;;22.24;98.53;101488.53;10461614;28;20045;-68
2021/08/21 17:45:12;;;;;;;2.40;2.15;;;;;;;22.02;99.63;101480.91;10462092;28;20053;-69
2021/08/21 17:50:14;;;;;;;4.13;2.10;;;;;;;21.83;100.00;101476.50;10461669;28;20048;-67
2021/08/21 17:55:16;;;;;;;4.32;2.63;;;;;;;21.76;100.00;101478.91;10461858;28;20045;-67
2021/08/21 18:00:19;;;;;;;2.58;2.05;;;;;;;21.49;100.00;101474.34;10461633;28;20049;-66
2021/08/21 18:05:21;;;;;;;2.22;2.03;;;;;;;21.39;100.00;101474.31;10461878;28;20103;-66
2021/08/21 18:10:24;;;;;;;3.70;2.38;;;;;;;21.12;100.00;101481.22;10460610;28;20049;-67
2021/08/21 18:15:26;;;;;;;5.10;2.80;;;;;;;21.09;100.00;101475.31;10460455;28;20470;-66
2021/08/21 18:20:29;;;;;;;3.88;2.95;;;;;;;20.90;100.00;101463.69;10461455;28;20052;-66
2021/08/21 18:25:31;;;;;;;3.25;2.60;;;;;;;21.04;100.00;101466.94;10460201;28;20053;-67
2021/08/21 18:30:33;;;;;;;4.38;2.40;;;;;;;20.71;100.00;101463.66;10459903;28;20045;-66
2021/08/21 18:35:40;;;;;;;3.17;2.88;;;;;;;20.53;100.00;101459.00;10459938;28;20049;-68
2021/08/21 18:40:43;;;;;;;4.10;3.38;;;;;;;20.49;100.00;101459.41;10460297;28;20060;-65
2021/08/21 18:45:45;;;;;;;3.28;2.97;;;;;;;20.26;100.00;101456.13;10459423;28;20056;-67
2021/08/21 18:50:48;;;;;;;6.03;3.60;;;;;;;20.19;100.00;101447.84;10459028;28;20059;-66
2021/08/21 18:55:50;;;;;;;3.63;3.33;;;;;;;20.07;100.00;101449.75;10458955;28;20059;-68
2021/08/21 19:00:53;;;;;;;5.32;4.75;;;;;;;19.98;100.00;101439.94;10458827;28;20049;-68
2021/08/21 19:05:56;;;;;;;5.65;4.53;;;;;;;19.98;100.00;101430.16;10459283;28;20045;-70
2021/08/21 19:10:58;;;;;;;5.63;5.07;;;;;;;19.82;100.00;101435.97;10458414;28;20049;-67
2021/08/21 19:16:00;;;;;;;4.60;4.20;;;;;;;19.83;100.00;101424.34;10458465;28;20045;-67
2021/08/21 19:21:03;;;;;;;11.23;4.60;;;;;;;19.71;100.00;101424.56;10457851;28;20082;-67
2021/08/21 19:26:06;;;;;;;11.88;5.45;;;;;;;19.67;100.00;101430.13;10457026;28;20530;-69
2021/08/21 19:31:09;;;;;;;6.05;4.80;;;;;;;19.73;100.00;101411.97;10457893;28;20041;-68
2021/08/21 19:36:11;;;;;;;8.80;5.95;;;;;;;19.79;100.00;101411.50;10457591;28;20091;-66
2021/08/21 19:41:14;;;;;;;7.78;6.05;;;;;;;19.66;100.00;101409.84;10457777;28;20378;-68
2021/08/21 19:46:16;;;;;;;9.68;6.45;;;;;;;19.60;100.00;101412.19;10457040;28;20501;-68
2021/08/21 19:51:18;;;;;;;8.55;6.22;;;;;;;19.66;100.00;101412.50;10457674;28;20086;-68
2021/08/21 19:56:22;;;;;;;8.70;6.57;;;;;;;19.67;100.00;101408.03;10455837;28;20059;-67
2021/08/21 20:01:24;;;;;;;13.00;7.82;;;;;;;19.55;100.00;101399.31;10456667;28;20045;-67
2021/08/21 20:06:27;;;;;;;10.88;7.72;;;;;;;19.60;100.00;101401.56;10456864;28;20051;-68
2021/08/21 20:11:29;;;;;;;12.57;7.00;;;;;;;19.55;100.00;101393.16;10455947;28;20049;-69
2021/08/21 20:16:33;;;;;;;8.50;7.63;;;;;;;19.45;100.00;101395.75;10456966;28;20041;-66
2021/08/21 20:21:35;;;;;;;11.55;8.40;;;;;;;19.47;100.00;101405.28;10456425;28;20057;-68
2021/08/21 20:26:37;;;;;;;10.93;7.25;;;;;;;19.65;100.00;101400.22;10456048;28;20390;-68
2021/08/21 20:31:40;;;;;;;12.38;9.15;;;;;;;19.57;100.00;101404.47;10456608;28;20045;-67
2021/08/21 20:36:42;;;;;;;14.48;8.80;;;;;;;19.72;100.00;101412.94;10458600;28;20053;-67
2021/08/21 20:41:45;;;;;;;9.75;8.10;;;;;;;19.47;100.00;101409.75;10464303;28;20053;-69
2021/08/21 20:46:47;;;;;;;10.32;9.30;;;;;;;19.31;100.00;101412.88;10463942;28;20504;-68
2021/08/21 20:51:49;;;;;;;12.23;9.63;;;;;;;19.38;100.00;101407.88;10464336;28;20060;-68
2021/08/21 20:56:52;;;;;;;10.90;9.68;;;;;;;19.24;100.00;101406.41;10463874;28;20045;-67
2021/08/21 21:01:54;;;;;;;13.40;10.77;;;;;;;19.18;100.00;101407.78;10463866;28;20052;-66
2021/08/21 21:06:57;;;;;;;11.90;10.80;;;;;;;19.31;100.00;101400.41;10463095;28;20489;-68
2021/08/21 21:12:00;;;;;;;19.27;13.13;;;;;;;19.11;100.00;101393.31;10463174;28;20053;-67
2021/08/21 21:17:02;;;;;;;16.70;13.80;;;;;;;19.16;100.00;101390.28;10462168;28;20052;-65
2021/08/21 21:22:07;;;;;;;16.90;14.93;;;;;;;19.15;100.00;101383.28;10462742;28;20060;-66
2021/08/21 21:27:10;;;;;;;18.83;15.43;;;;;;;19.16;100.00;101380.50;10462385;28;20528;-65
2021/08/21 21:32:12;;;;;;;17.27;15.50;;;;;;;19.21;100.00;101377.44;10462242;28;20048;-66
2021/08/21 21:37:14;;;;;;;16.65;14.90;;;;;;;19.16;100.00;101371.69;10462287;28;20397;-64
2021/08/21 21:42:17;;;;;;;18.08;16.23;;;;;;;19.14;100.00;101373.66;10462350;28;20049;-66
2021/08/21 21:47:19;;;;;;;16.90;14.75;;;;;;;19.26;100.00;101376.06;10460044;28;20052;-65
2021/08/21 21:52:24;;;;;;;18.80;15.07;;;;;;;19.17;100.00;101374.22;10460278;28;20547;-66
2021/08/21 21:57:27;;;;;;;21.80;18.63;;;;;;;18.99;100.00;101360.69;10461245;28;20128;-65
2021/08/21 22:02:29;;;;;;;21.40;18.35;;;;;;;19.05;100.00;101362.84;10461080;28;20048;-66
2021/08/21 22:07:31;;;;;;;21.33;19.17;;;;;;;18.92;100.00;101362.19;10461360;28;20059;-66
2021/08/21 22:12:34;;;;;;;22.38;20.08;;;;;;;19.01;100.00;101356.09;10460775;28;20045;-66
2021/08/21 22:17:36;;;;;;;20.92;18.80;;;;;;;18.94;100.00;101352.28;10460881;28;20053;-66
2021/08/21 22:22:54;;;;;;;24.15;20.58;;;;;;;18.78;100.00;101354.50;10460545;28;20076;-67
2021/08/21 22:27:58;;;;;;;20.92;17.98;;;;;;;18.82;100.00;101351.47;10460423;28;20095;-66
2021/08/21 22:33:00;;;;;;;22.23;19.17;;;;;;;18.73;100.00;101361.03;10460185;28;20045;-66
2021/08/21 22:38:02;;;;;;;24.85;20.33;;;;;;;18.76;100.00;101362.56;10460086;28;20045;-70
2021/08/21 22:43:05;;;;;;;25.35;20.23;;;;;;;18.53;100.00;101353.91;10459857;28;20048;-66
2021/08/21 22:48:08;;;;;;;29.02;25.65;;;;;;;18.64;100.00;101351.19;10459074;28;20370;-65
2021/08/21 22:53:10;;;;;;;27.88;22.13;;;;;;;18.66;100.00;101346.59;10459551;28;20142;-67